Time;durP1;ratioP1;P1;durP2;ratioP2;P2;SDS_P1;SDS_P2;PMS_P1;PMS_P2;Temp;Humidity;BMP_temperature;BMP_pressure;BME280_temperature;BME280_humidity;BME280_pressure;Samples;Min_cycle;Max_cycle;Signal;HPM_P1;HPM_P2
2023/10/27 00:01:03;;;;;;;6.00;3.70;;;15.60;91.30;;;;;;4977425;28;20022;-79
2023/10/27 00:03:28;;;;;;;5.93;3.80;;;15.60;91.20;;;;;;4977403;28;20058;-79
2023/10/27 00:05:54;;;;;;;5.95;3.63;;;15.60;91.20;;;;;;4977541;28;20062;-79
2023/10/27 00:08:20;;;;;;;4.88;3.10;;;15.60;91.10;;;;;;4977149;28;20035;-80
2023/10/27 00:10:45;;;;;;;5.82;3.65;;;15.60;91.10;;;;;;4977360;28;20481;-79
2023/10/27 00:13:11;;;;;;;5.95;3.80;;;15.60;91.10;;;;;;4977310;28;20031;-79
2023/10/27 00:15:36;;;;;;;5.25;3.25;;;15.60;91.20;;;;;;4977336;28;20044;-79
2023/10/27 00:18:02;;;;;;;5.25;3.45;;;15.60;91.20;;;;;;4977017;28;20041;-79
2023/10/27 00:20:28;;;;;;;6.10;3.65;;;15.60;91.20;;;;;;4977238;28;20054;-79
2023/10/27 00:22:53;;;;;;;5.72;3.70;;;15.60;91.30;;;;;;4977136;28;20029;-79
2023/10/27 00:25:19;;;;;;;5.30;3.70;;;15.60;91.30;;;;;;4994009;28;20088;-80
2023/10/27 00:27:44;;;;;;;5.63;3.70;;;15.50;91.30;;;;;;4976710;28;20034;-79
2023/10/27 00:30:10;;;;;;;5.95;3.83;;;15.60;91.40;;;;;;4977023;28;20034;-79
2023/10/27 00:32:36;;;;;;;5.57;3.58;;;15.50;91.30;;;;;;4977034;28;20037;-79
2023/10/27 00:35:04;;;;;;;6.32;4.22;;;15.50;91.40;;;;;;4976831;28;20030;-79
2023/10/27 00:37:33;;;;;;;6.10;3.97;;;15.50;91.40;;;;;;4976655;28;20023;-79
2023/10/27 00:39:58;;;;;;;6.15;3.97;;;15.50;91.40;;;;;;4976867;28;20089;-79
2023/10/27 00:42:23;;;;;;;5.93;3.72;;;15.50;91.40;;;;;;4976757;28;20030;-79
2023/10/27 00:44:49;;;;;;;6.03;3.97;;;15.40;91.40;;;;;;4994076;28;20484;-79
2023/10/27 00:47:15;;;;;;;6.00;3.80;;;15.50;91.40;;;;;;4976371;28;20034;-78
2023/10/27 00:49:40;;;;;;;6.07;4.00;;;15.50;91.40;;;;;;4976463;28;20117;-79
2023/10/27 00:52:06;;;;;;;5.50;3.60;;;15.50;91.40;;;;;;4976602;28;20022;-79
2023/10/27 00:54:34;;;;;;;6.78;4.40;;;15.50;91.40;;;;;;4976448;28;20034;-79
2023/10/27 00:56:59;;;;;;;5.70;3.60;;;15.40;91.40;;;;;;4976417;28;20023;-79
2023/10/27 00:59:25;;;;;;;6.18;4.05;;;15.50;91.40;;;;;;4976455;28;20122;-80
2023/10/27 01:01:50;;;;;;;5.95;3.95;;;15.50;91.40;;;;;;4976659;28;20058;-79
2023/10/27 01:04:16;;;;;;;5.82;3.90;;;15.50;91.40;;;;;;4976357;28;20019;-79
2023/10/27 01:06:41;;;;;;;5.75;3.63;;;15.50;91.70;;;;;;4976136;28;20113;-79
2023/10/27 01:09:08;;;;;;;5.95;3.63;;;15.50;91.50;;;;;;4993461;28;20030;-79
2023/10/27 01:11:33;;;;;;;5.90;3.88;;;15.50;91.40;;;;;;4976420;28;20057;-79
2023/10/27 01:14:00;;;;;;;5.07;3.25;;;15.50;91.40;;;;;;4993315;28;20488;-79
2023/10/27 01:16:25;;;;;;;5.82;3.60;;;15.50;91.30;;;;;;4993876;28;20066;-79
2023/10/27 01:18:51;;;;;;;5.78;3.90;;;15.60;91.30;;;;;;4975893;28;20023;-79
2023/10/27 01:21:16;;;;;;;6.28;4.00;;;15.60;91.40;;;;;;4977129;28;20025;-79
2023/10/27 01:23:42;;;;;;;6.47;4.22;;;15.60;91.20;;;;;;4976098;28;20060;-79
2023/10/27 01:26:07;;;;;;;5.13;3.28;;;15.60;91.10;;;;;;4976176;28;20034;-79
2023/10/27 01:28:33;;;;;;;6.32;3.80;;;15.60;91.10;;;;;;4975804;28;20609;-79
2023/10/27 01:30:58;;;;;;;6.57;4.07;;;15.60;91.10;;;;;;4975710;28;20030;-79
2023/10/27 01:33:24;;;;;;;5.78;3.70;;;15.60;91.20;;;;;;4975929;28;20034;-79
2023/10/27 01:35:54;;;;;;;5.57;3.63;;;15.60;91.20;;;;;;4993126;28;20392;-79
2023/10/27 01:38:20;;;;;;;6.25;3.97;;;15.60;91.30;;;;;;4975069;28;20022;-79
2023/10/27 01:40:46;;;;;;;6.70;3.92;;;15.50;91.30;;;;;;4975995;28;20022;-79
2023/10/27 01:43:11;;;;;;;6.07;3.92;;;15.50;91.30;;;;;;4975813;28;20417;-79
2023/10/27 01:45:37;;;;;;;6.28;3.92;;;15.50;91.30;;;;;;4975759;28;20034;-79
2023/10/27 01:48:03;;;;;;;6.25;4.15;;;15.50;91.40;;;;;;4975499;28;20543;-79
2023/10/27 01:50:28;;;;;;;7.25;4.82;;;15.50;91.40;;;;;;4975662;28;20429;-79
2023/10/27 01:52:54;;;;;;;6.38;4.07;;;15.50;91.40;;;;;;4993437;28;20094;-79
2023/10/27 01:55:19;;;;;;;6.28;4.25;;;15.50;91.40;;;;;;4975701;28;20105;-79
2023/10/27 01:57:45;;;;;;;6.30;4.07;;;15.40;91.40;;;;;;4975822;28;20027;-79
2023/10/27 02:00:11;;;;;;;6.57;4.22;;;15.40;91.40;;;;;;4993127;28;20023;-79
2023/10/27 02:02:37;;;;;;;6.60;4.60;;;15.50;91.40;;;;;;4975611;28;20437;-79
2023/10/27 02:05:04;;;;;;;6.78;4.28;;;15.50;91.40;;;;;;4992953;28;20034;-79
2023/10/27 02:07:29;;;;;;;6.03;3.80;;;15.50;91.40;;;;;;4975600;28;20077;-79
2023/10/27 02:09:59;;;;;;;6.57;4.55;;;15.50;91.40;;;;;;4975716;28;20125;-79
2023/10/27 02:12:28;;;;;;;7.03;4.63;;;15.50;91.50;;;;;;4975594;28;20162;-80
2023/10/27 02:14:53;;;;;;;7.05;4.70;;;15.40;91.50;;;;;;4975296;28;20154;-78
2023/10/27 02:17:19;;;;;;;7.25;4.65;;;15.40;91.50;;;;;;4972614;28;20129;-80
2023/10/27 02:19:45;;;;;;;6.97;4.68;;;15.40;91.40;;;;;;4975460;28;20023;-79
2023/10/27 02:22:10;;;;;;;6.35;4.22;;;15.40;91.40;;;;;;5011897;28;20030;-79
2023/10/27 02:24:40;;;;;;;6.13;4.05;;;15.50;91.50;;;;;;5012327;28;20104;-79
2023/10/27 02:27:05;;;;;;;5.85;3.50;;;15.50;91.40;;;;;;4994949;28;20799;-79
2023/10/27 02:29:31;;;;;;;7.05;3.88;;;15.50;91.40;;;;;;4994546;28;20025;-79
2023/10/27 02:31:57;;;;;;;6.45;4.18;;;15.50;91.40;;;;;;4994776;28;20029;-79
2023/10/27 02:34:22;;;;;;;6.47;4.22;;;15.50;91.30;;;;;;4994647;28;20034;-79
2023/10/27 02:36:48;;;;;;;6.05;4.07;;;15.50;91.20;;;;;;4994904;28;20452;-80
2023/10/27 02:39:13;;;;;;;6.78;4.30;;;15.50;91.20;;;;;;4994783;28;20018;-79
2023/10/27 02:41:39;;;;;;;6.60;4.03;;;15.50;91.20;;;;;;4994755;28;20051;-79
2023/10/27 02:44:05;;;;;;;6.20;3.95;;;15.60;91.20;;;;;;4994807;28;20026;-79
2023/10/27 02:46:32;;;;;;;6.38;3.75;;;15.60;91.20;;;;;;4994761;28;20073;-79
2023/10/27 02:48:58;;;;;;;6.88;4.30;;;15.60;91.20;;;;;;4995982;28;20029;-79
2023/10/27 02:51:25;;;;;;;6.13;4.10;;;15.50;91.20;;;;;;4998320;28;20033;-79
2023/10/27 02:53:51;;;;;;;5.95;3.97;;;15.50;91.20;;;;;;4998075;28;20029;-79
2023/10/27 02:56:16;;;;;;;6.68;4.07;;;15.50;91.30;;;;;;5015588;28;20026;-79
2023/10/27 02:58:42;;;;;;;6.45;4.13;;;15.50;91.30;;;;;;4997952;28;20018;-79
2023/10/27 03:01:14;;;;;;;6.82;4.20;;;15.50;91.30;;;;;;4998123;28;20022;-79
2023/10/27 03:03:40;;;;;;;6.15;3.78;;;15.50;91.40;;;;;;4997994;28;20026;-79
2023/10/27 03:06:05;;;;;;;6.80;4.35;;;15.50;91.40;;;;;;4997916;28;20026;-79
2023/10/27 03:08:32;;;;;;;7.28;4.70;;;15.50;91.40;;;;;;4997696;28;20030;-79
2023/10/27 03:10:58;;;;;;;7.00;4.50;;;15.50;91.40;;;;;;4998029;28;20049;-79
2023/10/27 03:13:23;;;;;;;7.57;4.97;;;15.50;91.40;;;;;;4997856;28;20480;-79
2023/10/27 03:15:49;;;;;;;7.30;4.88;;;15.50;91.40;;;;;;5015492;28;20035;-79
2023/10/27 03:18:14;;;;;;;7.10;4.72;;;15.40;91.40;;;;;;4997515;28;20121;-79
2023/10/27 03:20:40;;;;;;;7.25;4.78;;;15.40;91.40;;;;;;4997780;28;20030;-79
2023/10/27 03:23:05;;;;;;;6.88;4.43;;;15.40;91.40;;;;;;4997732;28;20081;-79
2023/10/27 03:25:31;;;;;;;6.53;4.07;;;15.40;91.40;;;;;;4997475;28;20507;-80
2023/10/27 03:27:56;;;;;;;7.75;5.28;;;15.40;91.40;;;;;;4997475;28;20025;-80
2023/10/27 03:30:23;;;;;;;6.90;4.32;;;15.40;91.40;;;;;;4997565;28;20029;-80
2023/10/27 03:32:48;;;;;;;7.85;5.10;;;15.40;91.40;;;;;;4997534;28;20057;-78
2023/10/27 03:35:14;;;;;;;6.97;4.57;;;15.40;91.40;;;;;;4997441;28;20064;-80
2023/10/27 03:37:40;;;;;;;6.95;4.50;;;15.40;91.40;;;;;;5014748;28;20472;-79
2023/10/27 03:40:07;;;;;;;7.72;4.60;;;15.40;91.40;;;;;;5014881;28;20076;-79
2023/10/27 03:42:33;;;;;;;6.88;4.55;;;15.40;91.40;;;;;;4997411;28;20025;-79
2023/10/27 03:44:58;;;;;;;6.50;4.03;;;15.40;91.40;;;;;;4997266;28;20523;-79
2023/10/27 03:47:24;;;;;;;6.47;4.20;;;15.50;91.40;;;;;;4997084;28;20040;-80
2023/10/27 03:49:49;;;;;;;6.70;4.40;;;15.40;91.30;;;;;;5014916;28;20484;-79
2023/10/27 03:52:16;;;;;;;7.10;4.43;;;15.50;91.30;;;;;;4997395;28;20038;-79
2023/10/27 03:54:41;;;;;;;6.50;4.35;;;15.50;91.20;;;;;;4996883;28;20389;-79
2023/10/27 03:57:07;;;;;;;6.15;4.03;;;15.50;91.20;;;;;;4996949;28;20132;-79
2023/10/27 03:59:32;;;;;;;6.57;4.05;;;15.50;91.10;;;;;;4996542;28;20018;-80
2023/10/27 04:01:58;;;;;;;6.95;4.32;;;15.60;91.10;;;;;;5014181;28;20049;-79
2023/10/27 04:04:24;;;;;;;6.97;4.55;;;15.50;91.10;;;;;;4996770;28;20026;-79
2023/10/27 04:06:50;;;;;;;6.35;4.13;;;15.50;91.10;;;;;;4996840;28;20022;-79
2023/10/27 04:09:15;;;;;;;6.88;4.50;;;15.50;91.10;;;;;;5014278;28;20105;-79
2023/10/27 04:11:42;;;;;;;6.90;4.35;;;15.50;91.20;;;;;;4996689;28;20110;-79
2023/10/27 04:14:07;;;;;;;6.88;4.50;;;15.50;91.20;;;;;;4996680;28;20553;-79
2023/10/27 04:16:33;;;;;;;7.30;4.70;;;15.50;91.20;;;;;;4993782;28;20022;-79
2023/10/27 04:18:58;;;;;;;6.78;4.20;;;15.50;91.30;;;;;;4981931;28;20042;-79
2023/10/27 04:21:24;;;;;;;6.88;4.55;;;15.50;91.30;;;;;;4981755;28;20030;-79
2023/10/27 04:23:49;;;;;;;7.13;4.80;;;15.50;91.30;;;;;;4996527;28;20040;-79
2023/10/27 04:26:15;;;;;;;7.25;4.78;;;15.50;91.40;;;;;;4996298;28;20052;-78
2023/10/27 04:28:42;;;;;;;7.55;4.88;;;15.40;91.40;;;;;;5013816;28;20025;-79
2023/10/27 04:31:08;;;;;;;7.75;4.75;;;15.40;91.40;;;;;;4996380;28;20021;-79
2023/10/27 04:33:36;;;;;;;7.50;4.90;;;15.40;91.40;;;;;;5013889;28;20029;-79
2023/10/27 04:36:02;;;;;;;7.45;5.05;;;15.40;91.40;;;;;;4996514;28;20022;-80
2023/10/27 04:38:27;;;;;;;7.93;4.97;;;15.40;91.40;;;;;;4989085;28;20508;-79
2023/10/27 04:40:53;;;;;;;7.20;4.50;;;15.40;91.40;;;;;;4970040;28;20023;-81
2023/10/27 04:43:21;;;;;;;7.40;4.95;;;15.40;91.40;;;;;;4970434;28;20532;-81
2023/10/27 04:45:46;;;;;;;6.75;4.40;;;15.40;91.40;;;;;;4970472;28;20031;-79
2023/10/27 04:48:12;;;;;;;7.40;4.88;;;15.40;91.40;;;;;;4969911;28;20030;-78
2023/10/27 04:50:37;;;;;;;7.18;4.75;;;15.40;91.40;;;;;;4971377;28;20812;-80
2023/10/27 04:53:03;;;;;;;7.15;4.70;;;15.40;91.40;;;;;;4969354;28;20755;-79
2023/10/27 04:55:29;;;;;;;6.80;4.55;;;15.40;91.40;;;;;;4972892;28;20022;-79
2023/10/27 04:57:54;;;;;;;6.93;4.60;;;15.40;91.40;;;;;;4972749;28;20440;-79
2023/10/27 05:00:20;;;;;;;6.75;4.35;;;15.40;91.40;;;;;;4972422;28;20026;-81
2023/10/27 05:02:45;;;;;;;6.65;4.03;;;15.40;91.40;;;;;;4991760;28;20030;-79
2023/10/27 05:05:11;;;;;;;6.70;4.53;;;15.40;91.40;;;;;;4991404;28;20040;-78
2023/10/27 05:07:37;;;;;;;6.93;4.22;;;15.40;91.40;;;;;;4980858;28;20057;-80
2023/10/27 05:10:03;;;;;;;6.68;4.30;;;15.40;91.30;;;;;;4972606;28;20033;-78
2023/10/27 05:12:28;;;;;;;7.53;4.90;;;15.40;91.30;;;;;;4972319;28;20026;-78
2023/10/27 05:14:54;;;;;;;6.53;4.18;;;15.40;91.20;;;;;;4972146;28;20033;-79
2023/10/27 05:17:20;;;;;;;7.20;4.63;;;15.50;91.20;;;;;;4972341;28;20026;-79
2023/10/27 05:19:48;;;;;;;7.03;4.90;;;15.50;91.20;;;;;;4972493;28;20046;-80
2023/10/27 05:22:14;;;;;;;7.30;4.50;;;15.50;91.10;;;;;;4972489;28;20503;-80
2023/10/27 05:24:40;;;;;;;6.57;4.28;;;15.50;91.10;;;;;;4972305;28;20101;-80
2023/10/27 05:27:05;;;;;;;6.80;4.22;;;15.50;91.10;;;;;;4972652;28;20072;-80
2023/10/27 05:29:31;;;;;;;6.63;4.22;;;15.50;91.20;;;;;;4972525;28;20038;-79
2023/10/27 05:31:56;;;;;;;7.57;4.70;;;15.50;91.20;;;;;;4972440;28;20026;-79
2023/10/27 05:34:22;;;;;;;7.63;4.93;;;15.50;91.20;;;;;;4989523;28;20026;-79
2023/10/27 05:36:47;;;;;;;7.20;4.60;;;15.50;91.20;;;;;;4971848;28;20118;-79
2023/10/27 05:39:16;;;;;;;6.90;4.32;;;15.40;91.20;;;;;;4972214;28;20022;-78
2023/10/27 05:41:46;;;;;;;7.15;4.50;;;15.40;91.30;;;;;;4974742;28;20026;-80
2023/10/27 05:44:15;;;;;;;6.63;4.15;;;15.40;91.30;;;;;;4973809;28;20030;-80
2023/10/27 05:46:40;;;;;;;6.90;4.22;;;15.40;91.30;;;;;;4992257;28;20037;-79
2023/10/27 05:49:06;;;;;;;7.50;4.70;;;15.40;91.30;;;;;;4974628;28;20030;-81
2023/10/27 05:51:34;;;;;;;6.85;4.60;;;15.40;91.30;;;;;;4974661;28;20065;-80
2023/10/27 05:53:59;;;;;;;7.55;4.82;;;15.40;91.30;;;;;;4974408;28;20121;-78
2023/10/27 05:56:27;;;;;;;7.43;4.63;;;15.40;91.30;;;;;;4974797;28;20223;-79
2023/10/27 05:58:52;;;;;;;7.07;4.80;;;15.40;91.30;;;;;;4973019;28;20030;-79
2023/10/27 06:01:19;;;;;;;7.75;4.78;;;15.40;91.30;;;;;;4974785;28;20026;-78
2023/10/27 06:03:44;;;;;;;7.55;4.70;;;15.40;91.30;;;;;;4973830;28;20591;-77
2023/10/27 06:06:10;;;;;;;7.65;4.82;;;15.40;91.30;;;;;;4973155;28;20041;-79
2023/10/27 06:08:41;;;;;;;7.57;4.93;;;15.40;91.40;;;;;;4973657;28;20082;-78
2023/10/27 06:11:06;;;;;;;7.20;4.70;;;15.40;91.40;;;;;;4973986;28;20050;-78
2023/10/27 06:13:32;;;;;;;7.20;4.88;;;15.40;91.40;;;;;;4974072;28;20289;-79
2023/10/27 06:15:57;;;;;;;7.88;5.07;;;15.40;91.30;;;;;;4974512;28;20448;-78
2023/10/27 06:18:23;;;;;;;7.28;4.47;;;15.30;91.30;;;;;;4991514;28;20465;-80
2023/10/27 06:20:48;;;;;;;6.50;3.92;;;15.40;91.40;;;;;;4970272;28;20026;-82
2023/10/27 06:23:14;;;;;;;7.22;4.60;;;15.40;91.40;;;;;;4978837;28;20018;-79
2023/10/27 06:25:39;;;;;;;6.85;4.50;;;15.40;91.30;;;;;;5016194;28;20519;-80
2023/10/27 06:28:05;;;;;;;7.00;4.40;;;15.40;91.30;;;;;;4997871;28;20164;-78
2023/10/27 06:30:31;;;;;;;6.40;4.07;;;15.40;91.20;;;;;;4997905;28;20026;-80
2023/10/27 06:32:57;;;;;;;7.65;4.95;;;15.40;91.20;;;;;;4997511;28;20032;-80
2023/10/27 06:35:23;;;;;;;7.00;4.53;;;15.50;91.10;;;;;;4997683;28;20105;-80
2023/10/27 06:37:48;;;;;;;6.55;4.25;;;15.50;91.10;;;;;;5014988;28;20028;-80
2023/10/27 06:40:14;;;;;;;7.10;4.50;;;15.50;91.10;;;;;;4998047;28;20093;-80
2023/10/27 06:42:39;;;;;;;6.70;4.32;;;15.50;91.10;;;;;;4998277;28;20116;-78
2023/10/27 06:45:05;;;;;;;6.90;4.10;;;15.50;91.10;;;;;;4997788;28;20029;-79
2023/10/27 06:47:31;;;;;;;7.43;4.72;;;15.50;91.10;;;;;;4998033;28;20053;-81
2023/10/27 06:49:56;;;;;;;6.80;4.43;;;15.40;91.20;;;;;;4998660;28;20104;-80
2023/10/27 06:52:22;;;;;;;7.22;4.43;;;15.40;91.40;;;;;;4998039;28;20085;-79
2023/10/27 06:54:48;;;;;;;7.10;4.43;;;15.40;91.20;;;;;;4980351;28;20595;-79
2023/10/27 06:57:13;;;;;;;7.40;4.82;;;15.40;91.20;;;;;;4978633;28;20031;-81
2023/10/27 06:59:39;;;;;;;7.25;4.47;;;15.40;91.20;;;;;;4978801;28;20684;-80
2023/10/27 07:02:04;;;;;;;7.35;4.40;;;15.40;91.30;;;;;;4978997;28;20500;-80
2023/10/27 07:04:30;;;;;;;7.97;4.80;;;15.40;91.30;;;;;;4979225;28;20038;-79
2023/10/27 07:06:55;;;;;;;7.13;4.40;;;15.40;91.30;;;;;;4978291;28;20023;-79
2023/10/27 07:09:21;;;;;;;7.95;4.82;;;15.40;91.30;;;;;;4977923;28;20149;-78
2023/10/27 07:11:46;;;;;;;7.97;4.90;;;15.40;91.30;;;;;;4976521;28;20027;-78
2023/10/27 07:14:14;;;;;;;8.23;5.07;;;15.40;91.30;;;;;;4971835;28;20420;-78
2023/10/27 07:16:40;;;;;;;7.35;4.57;;;15.40;91.30;;;;;;4998521;28;20029;-76
2023/10/27 07:19:06;;;;;;;7.40;4.70;;;15.40;91.40;;;;;;4990878;28;20029;-77
2023/10/27 07:21:33;;;;;;;7.78;4.63;;;15.30;91.30;;;;;;5008991;28;20388;-77
2023/10/27 07:23:59;;;;;;;7.70;5.13;;;15.30;91.40;;;;;;5008444;28;20029;-77
2023/10/27 07:26:25;;;;;;;7.45;4.60;;;15.30;91.40;;;;;;5008444;28;20048;-77
2023/10/27 07:28:50;;;;;;;8.18;4.63;;;15.30;91.40;;;;;;5008038;28;20037;-76
2023/10/27 07:31:16;;;;;;;7.10;4.57;;;15.30;91.40;;;;;;4991137;28;20033;-77
2023/10/27 07:33:43;;;;;;;7.15;4.18;;;15.30;91.30;;;;;;4990429;28;20041;-76
2023/10/27 07:36:10;;;;;;;7.95;4.93;;;15.30;91.40;;;;;;5006304;28;20495;-77
2023/10/27 07:38:36;;;;;;;6.93;4.20;;;15.30;91.40;;;;;;4990858;28;20034;-79
2023/10/27 07:41:03;;;;;;;7.00;4.38;;;15.40;91.40;;;;;;4995487;28;20025;-78
2023/10/27 07:43:29;;;;;;;8.13;4.80;;;15.40;91.30;;;;;;4994400;28;20030;-79
2023/10/27 07:45:56;;;;;;;10.23;4.53;;;15.40;91.20;;;;;;4994214;28;20089;-79
2023/10/27 07:48:22;;;;;;;8.68;4.70;;;15.40;91.20;;;;;;5013071;28;20496;-79
2023/10/27 07:50:48;;;;;;;7.57;4.45;;;15.40;91.10;;;;;;4996989;28;20034;-77
2023/10/27 07:53:13;;;;;;;8.05;5.03;;;15.50;91.10;;;;;;5014677;28;20026;-77
2023/10/27 07:55:39;;;;;;;7.80;4.90;;;15.50;91.00;;;;;;5014085;28;20045;-78
2023/10/27 07:58:05;;;;;;;8.10;5.35;;;15.30;91.00;;;;;;4992895;28;20088;-78
2023/10/27 08:00:31;;;;;;;9.63;5.00;;;15.50;91.00;;;;;;4990533;28;20097;-76
2023/10/27 08:02:57;;;;;;;8.52;5.40;;;15.40;91.00;;;;;;4990232;28;20026;-76
2023/10/27 08:05:23;;;;;;;8.18;5.07;;;15.40;91.00;;;;;;5007773;28;20037;-76
2023/10/27 08:07:48;;;;;;;8.13;5.00;;;15.40;91.00;;;;;;5007844;28;20033;-76
2023/10/27 08:10:14;;;;;;;8.93;5.40;;;15.40;91.00;;;;;;5008341;28;20056;-76
2023/10/27 08:12:40;;;;;;;8.43;5.28;;;15.40;91.10;;;;;;4990705;28;20125;-77
2023/10/27 08:15:06;;;;;;;8.30;4.93;;;15.40;91.10;;;;;;5008388;28;20555;-77
2023/10/27 08:17:33;;;;;;;9.10;5.45;;;15.40;91.10;;;;;;5007940;28;20022;-76
2023/10/27 08:19:58;;;;;;;8.50;5.07;;;15.40;91.20;;;;;;4990777;28;20030;-76
2023/10/27 08:22:24;;;;;;;8.63;4.63;;;15.40;91.20;;;;;;4990281;28;20076;-77
2023/10/27 08:24:49;;;;;;;8.02;4.97;;;15.40;91.20;;;;;;4990338;28;20037;-77
2023/10/27 08:27:15;;;;;;;8.57;5.10;;;15.30;91.20;;;;;;4990067;28;20072;-76
2023/10/27 08:29:40;;;;;;;7.70;4.53;;;15.40;91.20;;;;;;4994730;28;20365;-79
2023/10/27 08:32:06;;;;;;;7.63;4.88;;;15.40;91.20;;;;;;4995139;28;20911;-79
2023/10/27 08:34:32;;;;;;;9.27;5.10;;;15.30;91.20;;;;;;5012714;28;20034;-80
2023/10/27 08:36:57;;;;;;;7.53;4.80;;;15.30;91.20;;;;;;4994459;28;20113;-80
2023/10/27 08:39:24;;;;;;;7.93;4.72;;;15.20;91.20;;;;;;4994507;28;20037;-80
2023/10/27 08:41:50;;;;;;;8.65;5.30;;;15.30;91.20;;;;;;4993878;28;20504;-80
2023/10/27 08:44:17;;;;;;;7.70;4.80;;;15.30;91.20;;;;;;4994778;28;20036;-79
2023/10/27 08:46:43;;;;;;;8.52;4.63;;;15.30;91.30;;;;;;4993941;28;20026;-78
2023/10/27 08:49:09;;;;;;;8.90;5.30;;;15.30;91.30;;;;;;4995005;28;20057;-79
2023/10/27 08:51:35;;;;;;;7.88;4.82;;;15.30;91.30;;;;;;4993921;28;20034;-79
2023/10/27 08:54:01;;;;;;;7.82;4.43;;;15.40;91.30;;;;;;4993659;28;20034;-80
2023/10/27 08:56:27;;;;;;;7.80;4.72;;;15.30;91.30;;;;;;4993264;28;20026;-78
2023/10/27 08:58:53;;;;;;;7.70;4.82;;;15.30;91.30;;;;;;4993593;28;20100;-78
2023/10/27 09:01:19;;;;;;;7.53;4.47;;;15.40;91.30;;;;;;4993356;28;20125;-77
2023/10/27 09:04:12;;;;;;;8.38;5.13;;;15.40;91.20;;;;;;5011282;28;20037;-79
2023/10/27 09:06:38;;;;;;;8.00;4.80;;;15.40;91.10;;;;;;4993728;28;20026;-78
2023/10/27 09:09:05;;;;;;;8.18;4.97;;;15.40;91.10;;;;;;4993233;28;20121;-81
2023/10/27 09:11:42;;;;;;;8.05;4.60;;;15.50;91.00;;;;;;4975134;28;20085;-78
2023/10/27 09:14:27;;;;;;;8.10;4.40;;;15.50;91.00;;;;;;4969670;28;20026;-80
2023/10/27 09:17:05;;;;;;;7.03;4.40;;;15.50;91.00;;;;;;4974305;28;20022;-79
2023/10/27 09:19:32;;;;;;;7.70;4.63;;;15.40;91.00;;;;;;4973879;28;20556;-80
2023/10/27 09:21:58;;;;;;;7.75;4.70;;;15.40;91.00;;;;;;4974143;28;20032;-80
2023/10/27 09:24:30;;;;;;;8.27;4.65;;;15.40;91.10;;;;;;4991712;28;20548;-79
2023/10/27 09:26:59;;;;;;;8.68;4.80;;;15.40;91.10;;;;;;4973575;28;20061;-80
2023/10/27 09:29:26;;;;;;;8.95;4.95;;;15.40;91.10;;;;;;4972654;28;20377;-78
2023/10/27 09:31:52;;;;;;;8.38;4.93;;;15.40;91.10;;;;;;4972817;28;20030;-78
2023/10/27 09:34:19;;;;;;;7.53;4.60;;;15.40;91.20;;;;;;4972831;28;20034;-79
2023/10/27 09:36:46;;;;;;;8.95;4.95;;;15.40;91.20;;;;;;4991171;28;20031;-80
2023/10/27 09:39:16;;;;;;;7.47;4.47;;;15.40;91.20;;;;;;4974027;28;20033;-80
2023/10/27 09:41:47;;;;;;;7.32;4.38;;;15.40;91.20;;;;;;4973636;28;20575;-80
2023/10/27 09:44:16;;;;;;;7.18;4.53;;;15.40;91.20;;;;;;4974331;28;20074;-80
2023/10/27 09:46:54;;;;;;;7.40;4.43;;;15.30;91.20;;;;;;4991350;28;20034;-80
2023/10/27 09:49:28;;;;;;;7.55;4.60;;;15.30;91.30;;;;;;4991021;28;20045;-80
2023/10/27 09:52:00;;;;;;;7.97;4.85;;;15.30;91.30;;;;;;4973743;28;20101;-79
2023/10/27 09:54:31;;;;;;;7.90;4.93;;;15.30;91.30;;;;;;4974094;28;20037;-80
2023/10/27 09:56:59;;;;;;;8.00;4.72;;;15.30;91.30;;;;;;4973671;28;20488;-80
2023/10/27 09:59:25;;;;;;;7.82;4.38;;;15.30;91.30;;;;;;4975951;28;20058;-80
2023/10/27 10:01:51;;;;;;;7.93;4.82;;;15.30;91.30;;;;;;4997123;28;20037;-79
2023/10/27 10:04:52;;;;;;;7.30;4.43;;;15.30;91.30;;;;;;4996970;28;20034;-80
2023/10/27 10:07:34;;;;;;;7.28;4.30;;;15.30;91.30;;;;;;4996856;28;20037;-80
2023/10/27 10:10:19;;;;;;;7.90;4.88;;;15.30;91.30;;;;;;5014685;28;20508;-80
2023/10/27 10:13:03;;;;;;;7.40;4.40;;;15.30;91.30;;;;;;4996800;28;20037;-78
2023/10/27 10:15:31;;;;;;;6.63;3.97;;;15.30;91.30;;;;;;4996788;28;20081;-80
2023/10/27 10:17:57;;;;;;;6.88;4.00;;;15.40;91.30;;;;;;4957876;28;20031;-80
2023/10/27 10:20:41;;;;;;;8.05;4.80;;;15.40;91.30;;;;;;4958007;28;20413;-80
2023/10/27 10:23:07;;;;;;;7.47;4.38;;;15.40;91.20;;;;;;4957287;28;20053;-78
2023/10/27 10:25:34;;;;;;;6.97;4.45;;;15.40;91.20;;;;;;4957202;28;20042;-79
2023/10/27 10:28:08;;;;;;;7.00;4.22;;;15.40;91.10;;;;;;4974437;28;20062;-80
2023/10/27 10:30:48;;;;;;;6.90;4.35;;;15.50;91.10;;;;;;4963605;28;20518;-80
2023/10/27 10:33:16;;;;;;;6.80;4.22;;;15.50;91.10;;;;;;4976731;28;20073;-80
2023/10/27 10:35:46;;;;;;;7.53;4.55;;;15.50;91.10;;;;;;4976608;28;20037;-80
2023/10/27 10:38:21;;;;;;;7.35;4.40;;;15.40;91.10;;;;;;4976399;28;20033;-78
2023/10/27 10:40:54;;;;;;;6.70;4.10;;;15.40;91.10;;;;;;4976928;28;20086;-80
2023/10/27 10:43:27;;;;;;;7.30;4.40;;;15.40;91.10;;;;;;4976579;28;20034;-80
2023/10/27 10:45:58;;;;;;;6.30;3.67;;;15.40;91.20;;;;;;4976614;28;20030;-78
2023/10/27 10:48:25;;;;;;;7.87;4.50;;;15.40;91.20;;;;;;4993543;28;20252;-78
2023/10/27 10:50:52;;;;;;;7.03;4.30;;;15.40;91.20;;;;;;4976557;28;20511;-80
2023/10/27 10:53:24;;;;;;;7.93;4.32;;;15.40;91.20;;;;;;4976478;28;20104;-80
2023/10/27 10:55:50;;;;;;;7.63;4.50;;;15.40;91.20;;;;;;4975991;28;20058;-79
2023/10/27 10:58:20;;;;;;;7.03;4.18;;;15.40;91.30;;;;;;4976416;28;20046;-79
2023/10/27 11:00:48;;;;;;;7.30;4.22;;;15.30;91.30;;;;;;4976168;28;20061;-79
2023/10/27 11:03:13;;;;;;;7.18;3.90;;;15.30;91.30;;;;;;4976610;28;20064;-79
2023/10/27 11:05:39;;;;;;;6.78;4.00;;;15.40;91.30;;;;;;4976014;28;20057;-79
2023/10/27 11:08:05;;;;;;;7.63;4.22;;;15.30;91.30;;;;;;4976398;28;20031;-79
2023/10/27 11:10:32;;;;;;;6.78;4.00;;;15.30;91.30;;;;;;4993417;28;20437;-80
2023/10/27 11:13:05;;;;;;;7.47;4.10;;;15.30;91.30;;;;;;4976376;28;20041;-80
2023/10/27 11:15:50;;;;;;;7.13;4.10;;;15.30;91.30;;;;;;4976186;28;20571;-81
2023/10/27 11:18:16;;;;;;;7.43;4.20;;;15.30;91.30;;;;;;4993756;28;20492;-79
2023/10/27 11:20:47;;;;;;;7.25;4.20;;;15.30;91.30;;;;;;4993318;28;20031;-80
2023/10/27 11:23:15;;;;;;;6.75;3.95;;;15.30;91.30;;;;;;4976078;28;20064;-80
2023/10/27 11:25:41;;;;;;;6.68;3.85;;;15.30;91.40;;;;;;4976311;28;20035;-80
2023/10/27 11:28:37;;;;;;;6.38;3.72;;;15.30;91.40;;;;;;4992638;28;20508;-80
2023/10/27 11:31:20;;;;;;;6.85;4.20;;;15.30;91.40;;;;;;4955635;28;20073;-80
2023/10/27 11:34:03;;;;;;;5.97;3.53;;;15.30;91.40;;;;;;4992940;28;20060;-78
2023/10/27 11:36:33;;;;;;;6.50;3.80;;;15.40;91.40;;;;;;4975863;28;20037;-79
2023/10/27 11:39:13;;;;;;;6.45;3.67;;;15.40;91.30;;;;;;4992988;28;20034;-79
2023/10/27 11:41:39;;;;;;;6.63;3.90;;;15.40;91.30;;;;;;4975816;28;20041;-78
2023/10/27 11:44:05;;;;;;;6.45;3.85;;;15.40;91.20;;;;;;4975647;28;20417;-78
2023/10/27 11:46:30;;;;;;;6.60;3.90;;;15.40;91.20;;;;;;4975673;28;20038;-80
2023/10/27 11:48:56;;;;;;;6.10;3.67;;;15.40;91.10;;;;;;4974810;28;20030;-79
2023/10/27 11:51:21;;;;;;;6.72;3.95;;;15.40;91.10;;;;;;4974943;28;20026;-80
2023/10/27 11:53:47;;;;;;;6.55;3.78;;;15.40;91.10;;;;;;4975262;28;20038;-78
2023/10/27 11:56:13;;;;;;;6.78;3.97;;;15.40;91.10;;;;;;4974934;28;20408;-78
2023/10/27 11:58:39;;;;;;;7.03;4.00;;;15.40;91.20;;;;;;4974957;28;20073;-79
2023/10/27 12:01:05;;;;;;;5.70;3.35;;;15.40;91.20;;;;;;4975219;28;20022;-80
2023/10/27 12:03:31;;;;;;;5.78;3.47;;;15.40;91.20;;;;;;4974711;28;20026;-80
2023/10/27 12:05:56;;;;;;;6.30;3.70;;;15.40;91.20;;;;;;4975192;28;20034;-79
2023/10/27 12:08:22;;;;;;;6.88;3.58;;;15.40;91.30;;;;;;4975389;28;20078;-80
2023/10/27 12:10:54;;;;;;;6.18;3.50;;;15.40;91.30;;;;;;4975131;28;20034;-80
2023/10/27 12:13:23;;;;;;;6.63;3.50;;;15.30;91.30;;;;;;4975411;28;20037;-79
2023/10/27 12:15:49;;;;;;;6.55;3.80;;;15.30;91.30;;;;;;4975102;28;20575;-80
2023/10/27 12:18:19;;;;;;;6.60;3.90;;;15.30;91.30;;;;;;4974651;28;20030;-79
2023/10/27 12:20:45;;;;;;;7.15;3.78;;;15.30;91.30;;;;;;4991784;28;20078;-78
2023/10/27 12:23:11;;;;;;;6.35;3.42;;;15.30;91.30;;;;;;4974504;28;20028;-79
2023/10/27 12:25:37;;;;;;;6.47;3.55;;;15.30;91.30;;;;;;4974449;28;20555;-79
2023/10/27 12:28:03;;;;;;;6.10;3.55;;;15.30;91.40;;;;;;4992082;28;20069;-80
2023/10/27 12:30:30;;;;;;;5.78;3.40;;;15.30;91.40;;;;;;4974691;28;20054;-79
2023/10/27 12:32:59;;;;;;;6.00;3.47;;;15.30;91.40;;;;;;4974729;28;20042;-80
2023/10/27 12:35:27;;;;;;;6.43;3.80;;;15.30;91.40;;;;;;4974660;28;20034;-80
2023/10/27 12:37:53;;;;;;;6.28;3.67;;;15.40;91.40;;;;;;4974134;28;20033;-79
2023/10/27 12:40:24;;;;;;;6.45;3.80;;;15.30;91.40;;;;;;4974621;28;20023;-79
2023/10/27 12:42:50;;;;;;;6.00;3.60;;;15.20;91.40;;;;;;4975502;28;20718;-81
2023/10/27 12:45:16;;;;;;;5.75;3.15;;;15.30;91.40;;;;;;4974739;28;20038;-79
2023/10/27 12:47:44;;;;;;;5.68;3.30;;;15.30;91.40;;;;;;4992267;28;20043;-80